• Join FlightAware (Why Join?)
  • Login
  • US Flag 
02:05PM EDT


 

Airport Tracker/Info


-or-


 

Live Flight TrackerFlight Track Log ✈ UAL5904 ✈ 11-Sep-2013 ✈ KORD - KCMH

Flight Track Log - Related Links

Times and Time Zones

All times are in EDT time to prevent confusion due to time zone crossing. See the UAL5904 flight status page for this flight to view local times or setup timezone preferences in your user account.

Time Position Orientation Groundspeed Altitude Reporting Facility
EDT Latitude Longitude Course Direction KTS MPH feet Rate Location/Type
11:58AM 41.9000 -87.8667 73° East 189 217 3,400  Level Chicago TRACON
11:59AM 41.8467 -87.7864 132° Southeast 238 274 5,000 840 Climbing Chicago Center
12:00PM 41.7908 -87.6811 125° Southeast 275 316 5,600 1,200 Climbing Chicago Center
12:01PM 41.8120 -87.4427 90° East  Level Estimated
12:01PM 41.7878 -87.5711 92° East 296 341 7,500  Level Chicago Center
12:02PM 41.7693 -87.3271 85° East  Level Estimated
12:03PM 41.7972 -87.2039 73° East  Level FlightAware Approximate
12:03PM 41.7961 -87.4578 84° East 305 351 9,300  Level Chicago Center
12:04PM 41.8139 -87.3392 79° East 321 369 11,300 1,680 Climbing Chicago Center
12:05PM 41.8286 -87.2164 81° East 331 381 12,800 1,080 Climbing Chicago Center
12:06PM 41.8472 -87.0833 79° East 362 417 13,600 1,020 Climbing Chicago Center
12:07PM 41.8544 -86.9422 86° East 376 433 15,000 1,140 Climbing Chicago Center
12:08PM 41.8422 -86.7667 95° East 393 452 16,000 900 Climbing Chicago Center
12:09PM 41.8314 -86.6339 96° East 403 464 16,900 840 Climbing Chicago Center
12:10PM 41.8211 -86.4817 95° East 410 472 17,800 960 Climbing Chicago Center
12:11PM 41.8069 -86.2972 96° East 415 478 19,000 1,020 Climbing Chicago Center
12:12PM 41.7953 -86.1422 96° East 419 482 20,000 960 Climbing Chicago Center
12:13PM 41.7839 -85.9853 96° East 422 486 21,000 960 Climbing Chicago Center
12:14PM 41.7719 -85.8272 96° East 426 490 22,000 960 Climbing Chicago Center
12:15PM 41.7569 -85.6681 97° East 430 495 23,000 480 Climbing Chicago Center
12:16PM 41.6831 -85.5458 129° Southeast 433 498 23,000  Level Chicago Center
12:17PM 41.5639 -85.4281 144° Southeast 455 524 23,000  Level Chicago Center
12:18PM 41.4636 -85.3394 146° Southeast 456 525 23,000  Level Chicago Center
12:19PM 41.3586 -85.2403 145° Southeast 462 532 23,000  Level Chicago Center
12:20PM 41.2533 -85.1442 146° Southeast 461 531 23,000  Level Chicago Center
12:21PM 41.1264 -85.0281 145° Southeast 463 533 23,000  Level Chicago Center
12:22PM 41.0211 -84.9317 145° Southeast 461 531 23,000  Level Chicago Center
12:23PM 40.9164 -84.8353 145° Southeast 461 531 23,000 -480 Level Chicago Center
12:24PM 40.8339 -84.7142 132° Southeast 457 526 22,100 -1,020 Descending Chicago Center
12:25PM 40.8011 -84.6108 113° Southeast 442 509 21,200 -660 Descending Indianapolis Center
12:26PM 40.7450 -84.4308 112° Southeast 443 510 21,000 -120 Descending Indianapolis Center
12:27PM 40.6983 -84.2797 112° Southeast 444 511 21,000  Level Indianapolis Center
12:28PM 40.6511 -84.1289 112° Southeast 445 512 21,000 -720 Level Indianapolis Center
12:29PM 40.6044 -83.9817 113° Southeast 438 504 19,600 -1,740 Descending Indianapolis Center
12:30PM 40.5589 -83.8389 113° Southeast 427 491 17,500 -2,280 Descending Indianapolis Center
12:31PM 40.5153 -83.7025 113° Southeast 408 470 15,000 -2,760 Descending Indianapolis Center
12:31PM 40.5008 -83.6592 114° Southeast 398 458 14,200 -2,820 Descending Indianapolis Center
12:32PM 40.4667 -83.5569 114° Southeast 385 443 12,200 -2,040 Descending Indianapolis Center
12:32PM 40.4728 -83.5714 299° West 394 453 12,500 -2,100 Climbing Indianapolis Center
12:33PM 40.4283 -83.4350 113° Southeast 363 418 10,100 -2,400 Descending Indianapolis Center
12:33PM 40.4333 -83.4467 299° West 378 435 10,100 -1,140 Level Indianapolis Center
12:34PM 40.4072 -83.3297 106° East 306 352 9,100 -1,020 Descending Indianapolis Center
12:34PM 40.4092 -83.3356 294° West 338 389 9,100 -1,320 Level Indianapolis Center
12:35PM 40.4042 -83.2303 94° East 287 330 7,800 -1,620 Descending Indianapolis Center
12:35PM 40.4042 -83.2053 90° East 302 348 7,500 -1,320 Descending Indianapolis Center
12:36PM 40.4000 -83.1222 94° East 290 334 6,500 -1,260 Descending Indianapolis Center
12:36PM 40.3983 -83.1008 96° East 292 336 6,200 -1,200 Descending Indianapolis Center
12:37PM 40.3939 -83.0086 94° East 268 308 5,200 -1,080 Descending Indianapolis Center
12:37PM 40.3939 -83.0022 90° East 279 321 5,100 -180 Descending Indianapolis Center
12:38PM 40.3889 -82.9047 94° East 271 312 5,000 -300 Descending Indianapolis Center
12:39PM 40.3831 -82.8119 95° East 272 313 4,600 -420 Descending Indianapolis Center
12:39PM 40.3839 -82.8086 72° East 273 314 4,600 -600 Level Indianapolis Center
12:40PM 40.3794 -82.7153 94° East 264 304 4,000 -600 Descending Indianapolis Center
12:40PM 40.3781 -82.6958 95° East 268 308 4,000  Level Indianapolis Center
12:41PM 40.3606 -82.6244 108° East 248 285 4,000  Level Indianapolis Center
12:41PM 40.3564 -82.6178 129° Southeast 247 284 4,000  Level Indianapolis Center
12:42PM 40.3161 -82.5597 132° Southeast 239 275 4,000  Level Indianapolis Center
12:42PM 40.3106 -82.5514 131° Southeast 246 283 4,000  Level Indianapolis Center
12:43PM 40.2567 -82.5425 173° South 231 266 4,000  Level Indianapolis Center
12:43PM 40.2472 -82.5425 180° South 242 278 4,000  Level Indianapolis Center
12:44PM 40.1939 -82.5628 196° South 233 268 4,000 -240 Level Indianapolis Center
12:44PM 40.1825 -82.5642 185° South 234 269 3,800 -1,140 Descending Indianapolis Center
12:45PM 40.1339 -82.5781 192° South 233 268 3,000 -840 Descending Indianapolis Center
12:45PM 40.1189 -82.5836 196° South 232 267 3,000  Level Indianapolis Center
12:46PM 40.0722 -82.6094 203° Southwest 243 280 3,000  Level Indianapolis Center
12:46PM 40.0567 -82.6175 202° Southwest 239 275 3,000  Level Indianapolis Center
12:48PM 39.9986 -82.6508 204° Southwest 235 270 3,000  Level Indianapolis Center
12:48PM 39.9914 -82.7117 261° West 227 261 3,000 -120 Level Indianapolis Center
12:49PM 39.9933 -82.7319 277° West 232 267 2,900 -840 Descending Indianapolis Center
12:49PM 39.9964 -82.7917 274° West 200 230 2,200 -780 Descending Indianapolis Center
12:50PM 39.9975 -82.7992 281° West 201 231 2,100 -840 Descending Indianapolis Center
12:50PM 39.9981 -82.8411 271° West 127 146 1,400 -780 Descending Indianapolis Center
12:51PM 39.9989 -82.8500 277° West 162 186 1,300 -300 Descending Indianapolis Center
12:52PM 40.0039 -82.9092 276° West 153 176 1,000 -300 Descending Indianapolis Center